www.bettendroffer.lu
Wetterdaten: vendredi, 18.03.2011
Datum Zeit Temp. 1 ext. Temp. 3 Feuchte 1 Feuchte 3 Luftdruck Regen Wind Richtung Richtung Taupunkt Windchill
18.03.2011 00:07 5,6 C 5,4 C 41 % 57 % 1011 hPa 0,0 l/m 0,0 km/h (0 Bft) W45 280 -6,6 C 5,6 C
18.03.2011 00:37 5,5 C 5,4 C 42 % 58 % 1011 hPa 0,0 l/m 0,0 km/h (0 Bft) NW45 325 -6,4 C 5,5 C
18.03.2011 01:07 5,5 C 5,4 C 42 % 58 % 1012 hPa 0,0 l/m 0,0 km/h (0 Bft) N-NW45 330 -6,4 C 5,5 C
18.03.2011 01:37 5,5 C 5,3 C 43 % 59 % 1012 hPa 0,0 l/m 0,0 km/h (0 Bft) W-NW45 285 -6,1 C 5,5 C
18.03.2011 02:07 5,1 C 5,1 C 45 % 60 % 1013 hPa 0,0 l/m 0,0 km/h (0 Bft) W22.5 260 -5,8 C 5,1 C
18.03.2011 02:37 5,0 C 4,9 C 45 % 60 % 1013 hPa 0,0 l/m 0,0 km/h (0 Bft) W22.5 270 -5,9 C 5,0 C
18.03.2011 03:07 4,9 C 4,8 C 44 % 59 % 1013 hPa 0,0 l/m 0,0 km/h (0 Bft) N-NW67.5 335 -6,3 C 4,9 C
18.03.2011 03:37 4,9 C 4,7 C 45 % 60 % 1013 hPa 0,0 l/m 0,0 km/h (0 Bft) N-NW45 335 -6,0 C 4,9 C
18.03.2011 04:07 4,8 C 4,6 C 44 % 59 % 1013 hPa 0,0 l/m 0,0 km/h (0 Bft) NW67.5 320 -6,4 C 4,8 C
18.03.2011 04:37 4,7 C 4,6 C 41 % 57 % 1014 hPa 0,0 l/m 0,0 km/h (0 Bft) W-NW45 300 -7,4 C 4,7 C
18.03.2011 05:07 4,7 C 4,6 C 42 % 57 % 1014 hPa 0,0 l/m 0,0 km/h (0 Bft) W-NW45 295 -7,1 C 4,7 C
18.03.2011 05:37 4,7 C 4,5 C 43 % 58 % 1014 hPa 0,0 l/m 0,0 km/h (0 Bft) W67.5 275 -6,8 C 4,7 C
18.03.2011 06:07 4,5 C 4,4 C 43 % 58 % 1015 hPa 0,0 l/m 0,0 km/h (0 Bft) W 270 -7,0 C 4,5 C
18.03.2011 06:37 4,4 C 4,3 C 43 % 58 % 1015 hPa 0,0 l/m 0,0 km/h (0 Bft) W 260 -7,1 C 4,4 C
18.03.2011 07:07 4,4 C 4,3 C 43 % 59 % 1015 hPa 0,0 l/m 0,0 km/h (0 Bft) W45 270 -7,1 C 4,4 C
18.03.2011 07:37 4,4 C 4,2 C 45 % 60 % 1016 hPa 0,0 l/m 0,0 km/h (0 Bft) W 260 -6,5 C 4,4 C
18.03.2011 08:07 4,3 C 4,1 C 41 % 57 % 1016 hPa 0,0 l/m 0,0 km/h (0 Bft) NW45 305 -7,8 C 4,3 C
18.03.2011 08:37 4,3 C 4,2 C 40 % 55 % 1016 hPa 0,0 l/m 0,0 km/h (0 Bft) W-NW45 285 -8,1 C 4,3 C
18.03.2011 09:07 4,4 C 4,4 C 40 % 54 % 1016 hPa 0,0 l/m 0,0 km/h (0 Bft) W 260 -8,0 C 4,4 C
18.03.2011 09:37 4,7 C 4,6 C 41 % 55 % 1017 hPa 0,0 l/m 0,0 km/h (0 Bft) W 270 -7,4 C 4,7 C
18.03.2011 10:07 4,9 C 5,1 C 39 % 52 % 1017 hPa 0,0 l/m 0,0 km/h (0 Bft) W-NW45 295 -7,9 C 4,9 C
18.03.2011 10:37 5,5 C 5,7 C 36 % 49 % 1017 hPa 0,0 l/m 0,0 km/h (0 Bft) N 355 -8,4 C 5,5 C
18.03.2011 11:07 6,1 C 6,5 C 31 % 45 % 1017 hPa 0,0 l/m 0,0 km/h (0 Bft) W 270 -9,7 C 6,1 C
18.03.2011 11:37 6,3 C 6,8 C 26 % 41 % 1017 hPa 0,0 l/m 0,0 km/h (0 Bft) W22.5 270 -11,8 C 6,3 C
18.03.2011 12:07 6,5 C 7,2 C 20 % 39 % 1017 hPa 0,0 l/m 0,0 km/h (0 Bft) NW45 315 -14,8 C 6,5 C
18.03.2011 12:37 8,5 C 8,6 C 20 % 33 % 1017 hPa 0,0 l/m 0,0 km/h (0 Bft) W 260 -13,1 C 8,5 C
18.03.2011 13:07 9,0 C 9,5 C 20 % 30 % 1017 hPa 0,0 l/m 0,0 km/h (0 Bft) SW 230 -12,7 C 9,0 C
18.03.2011 13:37 9,0 C 9,7 C 20 % 28 % 1017 hPa 0,0 l/m 0,0 km/h (0 Bft) SO 125 -12,7 C 9,0 C
18.03.2011 14:07 9,2 C 9,5 C 20 % 28 % 1017 hPa 0,0 l/m 0,0 km/h (0 Bft) SO 135 -12,6 C 9,2 C
18.03.2011 14:37 9,7 C 10,3 C 20 % 26 % 1017 hPa 0,0 l/m 0,0 km/h (0 Bft) O-SO22.5 115 -12,1 C 9,7 C
18.03.2011 15:07 10,2 C 10,2 C 20 % 26 % 1017 hPa 0,0 l/m 0,0 km/h (0 Bft) SO67.5 140 -11,7 C 10,2 C
18.03.2011 15:37 10,0 C 10,4 C 20 % 27 % 1017 hPa 0,0 l/m 0,0 km/h (0 Bft) SO22.5 135 -11,9 C 10,0 C
18.03.2011 16:07 9,7 C 9,5 C 20 % 29 % 1017 hPa 0,0 l/m 0,0 km/h (0 Bft) SO22.5 135 -12,1 C 9,7 C
18.03.2011 16:37 9,1 C 9,2 C 20 % 30 % 1017 hPa 0,0 l/m 0,0 km/h (0 Bft) O 90 -12,6 C 9,1 C
18.03.2011 17:07 8,8 C 8,3 C 20 % 33 % 1017 hPa 0,0 l/m 0,0 km/h (0 Bft) S-SO45 155 -12,9 C 8,8 C
18.03.2011 17:37 8,8 C 7,9 C 20 % 36 % 1017 hPa 0,0 l/m 0,0 km/h (0 Bft) S-SO67.5 150 -12,9 C 8,8 C
18.03.2011 18:07 8,8 C 7,1 C 20 % 39 % 1017 hPa 0,0 l/m 0,0 km/h (0 Bft) S-SO22.5 155 -12,9 C 8,8 C
18.03.2011 18:37 8,8 C 6,7 C 20 % 41 % 1017 hPa 0,0 l/m 0,0 km/h (0 Bft) S-SO45 150 -12,9 C 8,8 C
18.03.2011 19:07 8,8 C 6,4 C 20 % 42 % 1017 hPa 0,0 l/m 0,0 km/h (0 Bft) SO45 140 -12,9 C 8,8 C
18.03.2011 19:37 8,8 C 6,1 C 20 % 44 % 1018 hPa 0,0 l/m 0,0 km/h (0 Bft) SO 125 -12,9 C 8,8 C
18.03.2011 20:07 8,8 C 5,9 C 20 % 46 % 1017 hPa 0,0 l/m 0,0 km/h (0 Bft) O 95 -12,9 C 8,8 C
18.03.2011 20:37 8,8 C 5,8 C 20 % 47 % 1017 hPa 0,0 l/m 0,0 km/h (0 Bft) O 95 -12,9 C 8,8 C
18.03.2011 21:07 8,8 C 5,6 C 20 % 49 % 1017 hPa 0,0 l/m 0,0 km/h (0 Bft) SO45 140 -12,9 C 8,8 C
18.03.2011 21:37 8,8 C 5,4 C 20 % 52 % 1017 hPa 0,0 l/m 0,0 km/h (0 Bft) O-SO 110 -12,9 C 8,8 C
18.03.2011 22:07 4,8 C 5,0 C 47 % 55 % 1017 hPa 0,0 l/m 0,0 km/h (0 Bft) O 95 -5,5 C 4,8 C
18.03.2011 22:37 4,8 C 4,7 C 47 % 58 % 1017 hPa 0,4 l/m 0,0 km/h (0 Bft) O 95 -5,5 C 4,8 C
18.03.2011 23:07 4,6 C 4,4 C 50 % 61 % 1017 hPa 1,1 l/m 0,0 km/h (0 Bft) O 95 -4,9 C 4,6 C
18.03.2011 23:37 4,7 C 4,4 C 52 % 65 % 1017 hPa 0,7 l/m 0,0 km/h (0 Bft) O 95 -4,3 C 4,7 C
_ Min-Zeit 08:07 08:07 12:07 14:37 00:07 - 00:07 - - 12:07 08:07
Minimum _ 4,3 C 4,1 C 20 % 26 % 1011 hPa - 0,0 km/h (0 Bft) - - -14,8 C 4,3 C
_ Max-Zeit 15:07 15:37 23:37 23:37 19:37 23:07 00:07 - - 23:37 15:07
Maximum _ 10,2 C 10,4 C 52 % 65 % 1018 hPa 1,1 l/m 0,0 km/h
W (0 Bft)
- - -4,3 C 10,2 C
Durchschnitt _ 6,6 C 6,2 C 33 % 48 % 1016 hPa #2,2 l/m 0,0 km/h (0 Bft) - - - -9,4 C 6,6 C
©2001-2010 Bettendroffer Claude